sensor_id;sensor_type;location;lat;lon;timestamp;temperature;humidity
1716;DHT22;855;48.824;9.220;2024-01-15T00:02:00;0.60;78.80
1716;DHT22;855;48.824;9.220;2024-01-15T00:04:28;0.50;78.80
1716;DHT22;855;48.824;9.220;2024-01-15T00:06:55;0.60;79.10
1716;DHT22;855;48.824;9.220;2024-01-15T00:09:22;0.60;78.80
1716;DHT22;855;48.824;9.220;2024-01-15T00:11:49;0.70;78.40
1716;DHT22;855;48.824;9.220;2024-01-15T00:14:16;0.60;78.40
1716;DHT22;855;48.824;9.220;2024-01-15T00:16:45;0.60;78.80
1716;DHT22;855;48.824;9.220;2024-01-15T00:19:14;0.60;79.10
1716;DHT22;855;48.824;9.220;2024-01-15T00:21:41;0.60;79.00
1716;DHT22;855;48.824;9.220;2024-01-15T00:24:08;0.60;79.00
1716;DHT22;855;48.824;9.220;2024-01-15T00:26:35;0.50;79.10
1716;DHT22;855;48.824;9.220;2024-01-15T00:29:02;0.50;79.30
1716;DHT22;855;48.824;9.220;2024-01-15T00:31:29;0.50;79.20
1716;DHT22;855;48.824;9.220;2024-01-15T00:33:56;0.50;79.10
1716;DHT22;855;48.824;9.220;2024-01-15T00:36:25;0.50;79.20
1716;DHT22;855;48.824;9.220;2024-01-15T00:38:53;0.50;78.80
1716;DHT22;855;48.824;9.220;2024-01-15T00:41:20;0.50;78.80
1716;DHT22;855;48.824;9.220;2024-01-15T00:43:48;0.50;79.00
1716;DHT22;855;48.824;9.220;2024-01-15T00:46:15;0.40;78.80
1716;DHT22;855;48.824;9.220;2024-01-15T00:48:43;0.40;79.10
1716;DHT22;855;48.824;9.220;2024-01-15T00:51:10;0.30;79.20
1716;DHT22;855;48.824;9.220;2024-01-15T00:53:39;0.30;79.50
1716;DHT22;855;48.824;9.220;2024-01-15T00:56:06;0.40;79.70
1716;DHT22;855;48.824;9.220;2024-01-15T00:58:33;0.40;79.90
1716;DHT22;855;48.824;9.220;2024-01-15T01:01:01;0.40;80.10
1716;DHT22;855;48.824;9.220;2024-01-15T01:03:28;0.40;80.30
1716;DHT22;855;48.824;9.220;2024-01-15T01:05:55;0.30;80.50
1716;DHT22;855;48.824;9.220;2024-01-15T01:08:22;0.40;80.80
1716;DHT22;855;48.824;9.220;2024-01-15T01:10:51;0.40;80.80
1716;DHT22;855;48.824;9.220;2024-01-15T01:13:18;0.40;80.80
1716;DHT22;855;48.824;9.220;2024-01-15T01:15:46;0.40;80.50
1716;DHT22;855;48.824;9.220;2024-01-15T01:18:13;0.40;80.50
1716;DHT22;855;48.824;9.220;2024-01-15T01:20:40;0.40;80.70
1716;DHT22;855;48.824;9.220;2024-01-15T01:23:07;0.50;80.80
1716;DHT22;855;48.824;9.220;2024-01-15T01:25:34;0.60;80.50
1716;DHT22;855;48.824;9.220;2024-01-15T01:28:02;0.60;80.50
1716;DHT22;855;48.824;9.220;2024-01-15T01:30:29;0.60;80.40
1716;DHT22;855;48.824;9.220;2024-01-15T01:32:56;0.60;80.40
1716;DHT22;855;48.824;9.220;2024-01-15T01:35:23;0.70;80.50
1716;DHT22;855;48.824;9.220;2024-01-15T01:37:50;0.70;80.40
1716;DHT22;855;48.824;9.220;2024-01-15T01:40:17;0.60;80.80
1716;DHT22;855;48.824;9.220;2024-01-15T01:42:44;0.70;81.10
1716;DHT22;855;48.824;9.220;2024-01-15T01:45:13;0.70;81.20
1716;DHT22;855;48.824;9.220;2024-01-15T01:47:40;0.60;81.70
1716;DHT22;855;48.824;9.220;2024-01-15T01:50:07;0.60;82.30
1716;DHT22;855;48.824;9.220;2024-01-15T01:52:34;0.60;82.70
1716;DHT22;855;48.824;9.220;2024-01-15T01:55:02;0.70;82.80
1716;DHT22;855;48.824;9.220;2024-01-15T01:57:31;0.80;82.90
1716;DHT22;855;48.824;9.220;2024-01-15T02:00:01;0.80;82.80
1716;DHT22;855;48.824;9.220;2024-01-15T02:02:31;0.80;82.40
1716;DHT22;855;48.824;9.220;2024-01-15T02:04:58;0.80;82.40
1716;DHT22;855;48.824;9.220;2024-01-15T02:07:25;0.90;82.40
1716;DHT22;855;48.824;9.220;2024-01-15T02:09:53;0.90;82.30
1716;DHT22;855;48.824;9.220;2024-01-15T02:12:20;1.00;82.10
1716;DHT22;855;48.824;9.220;2024-01-15T02:14:47;1.10;82.00
1716;DHT22;855;48.824;9.220;2024-01-15T02:17:14;1.20;81.30
1716;DHT22;855;48.824;9.220;2024-01-15T02:19:42;1.20;80.90
1716;DHT22;855;48.824;9.220;2024-01-15T02:22:09;1.20;80.90
1716;DHT22;855;48.824;9.220;2024-01-15T02:24:38;1.30;80.90
1716;DHT22;855;48.824;9.220;2024-01-15T02:27:05;1.30;80.50
1716;DHT22;855;48.824;9.220;2024-01-15T02:29:32;1.40;80.40
1716;DHT22;855;48.824;9.220;2024-01-15T02:31:58;1.40;80.00
1716;DHT22;855;48.824;9.220;2024-01-15T02:34:27;1.40;80.00
1716;DHT22;855;48.824;9.220;2024-01-15T02:36:57;1.40;79.90
1716;DHT22;855;48.824;9.220;2024-01-15T02:39:24;1.40;79.50
1716;DHT22;855;48.824;9.220;2024-01-15T02:41:53;1.50;79.20
1716;DHT22;855;48.824;9.220;2024-01-15T02:44:21;1.50;79.10
1716;DHT22;855;48.824;9.220;2024-01-15T02:46:48;1.40;79.00
1716;DHT22;855;48.824;9.220;2024-01-15T02:49:15;1.40;78.80
1716;DHT22;855;48.824;9.220;2024-01-15T02:51:42;1.40;79.10
1716;DHT22;855;48.824;9.220;2024-01-15T02:54:09;1.30;79.20
1716;DHT22;855;48.824;9.220;2024-01-15T02:56:36;1.30;79.10
1716;DHT22;855;48.824;9.220;2024-01-15T02:59:05;1.20;79.30
1716;DHT22;855;48.824;9.220;2024-01-15T03:01:32;1.30;79.30
1716;DHT22;855;48.824;9.220;2024-01-15T03:03:59;1.00;79.70
1716;DHT22;855;48.824;9.220;2024-01-15T03:06:25;1.00;80.30
1716;DHT22;855;48.824;9.220;2024-01-15T03:08:53;1.00;80.50
1716;DHT22;855;48.824;9.220;2024-01-15T03:11:21;1.00;80.40
1716;DHT22;855;48.824;9.220;2024-01-15T03:13:48;1.00;80.40
1716;DHT22;855;48.824;9.220;2024-01-15T03:16:16;1.10;80.30
1716;DHT22;855;48.824;9.220;2024-01-15T03:18:45;1.10;80.40
1716;DHT22;855;48.824;9.220;2024-01-15T03:21:12;1.20;80.10
1716;DHT22;855;48.824;9.220;2024-01-15T03:23:39;1.20;79.90
1716;DHT22;855;48.824;9.220;2024-01-15T03:26:06;1.30;79.90
1716;DHT22;855;48.824;9.220;2024-01-15T03:28:33;1.30;79.60
1716;DHT22;855;48.824;9.220;2024-01-15T03:31:00;1.30;79.50
1716;DHT22;855;48.824;9.220;2024-01-15T03:33:28;1.40;79.20
1716;DHT22;855;48.824;9.220;2024-01-15T03:35:57;1.30;79.30
1716;DHT22;855;48.824;9.220;2024-01-15T03:38:24;1.30;79.50
1716;DHT22;855;48.824;9.220;2024-01-15T03:40:51;1.30;79.60
1716;DHT22;855;48.824;9.220;2024-01-15T03:43:18;1.40;79.30
1716;DHT22;855;48.824;9.220;2024-01-15T03:45:45;1.30;79.30
1716;DHT22;855;48.824;9.220;2024-01-15T03:48:12;1.30;79.20
1716;DHT22;855;48.824;9.220;2024-01-15T03:50:41;1.30;79.30
1716;DHT22;855;48.824;9.220;2024-01-15T03:53:08;1.30;79.60
1716;DHT22;855;48.824;9.220;2024-01-15T03:55:35;1.30;79.70
1716;DHT22;855;48.824;9.220;2024-01-15T03:58:02;1.40;79.70
1716;DHT22;855;48.824;9.220;2024-01-15T04:00:29;1.40;80.10
1716;DHT22;855;48.824;9.220;2024-01-15T04:02:56;1.40;80.30
1716;DHT22;855;48.824;9.220;2024-01-15T04:05:23;1.50;80.10
1716;DHT22;855;48.824;9.220;2024-01-15T04:07:51;1.50;79.90
1716;DHT22;855;48.824;9.220;2024-01-15T04:10:18;1.50;80.00
1716;DHT22;855;48.824;9.220;2024-01-15T04:12:45;1.60;80.00
1716;DHT22;855;48.824;9.220;2024-01-15T04:15:13;1.60;79.90
1716;DHT22;855;48.824;9.220;2024-01-15T04:17:40;1.60;79.70
1716;DHT22;855;48.824;9.220;2024-01-15T04:20:08;1.60;79.70
1716;DHT22;855;48.824;9.220;2024-01-15T04:22:35;1.80;79.60
1716;DHT22;855;48.824;9.220;2024-01-15T04:25:05;1.80;79.20
1716;DHT22;855;48.824;9.220;2024-01-15T04:27:32;1.80;79.20
1716;DHT22;855;48.824;9.220;2024-01-15T04:29:59;1.80;79.70
1716;DHT22;855;48.824;9.220;2024-01-15T04:32:26;1.90;79.90
1716;DHT22;855;48.824;9.220;2024-01-15T04:34:53;2.00;79.60
1716;DHT22;855;48.824;9.220;2024-01-15T04:37:20;1.80;79.30
1716;DHT22;855;48.824;9.220;2024-01-15T04:39:47;1.80;80.10
1716;DHT22;855;48.824;9.220;2024-01-15T04:42:15;1.90;79.90
1716;DHT22;855;48.824;9.220;2024-01-15T04:44:42;2.00;79.70
1716;DHT22;855;48.824;9.220;2024-01-15T04:47:09;2.00;79.10
1716;DHT22;855;48.824;9.220;2024-01-15T04:49:36;2.10;79.10
1716;DHT22;855;48.824;9.220;2024-01-15T04:52:03;2.20;78.70
1716;DHT22;855;48.824;9.220;2024-01-15T04:54:31;2.20;78.30
1716;DHT22;855;48.824;9.220;2024-01-15T04:56:58;2.10;78.20
1716;DHT22;855;48.824;9.220;2024-01-15T04:59:27;2.10;78.70
1716;DHT22;855;48.824;9.220;2024-01-15T05:01:55;1.90;78.70
1716;DHT22;855;48.824;9.220;2024-01-15T05:04:23;1.80;79.20
1716;DHT22;855;48.824;9.220;2024-01-15T05:06:51;1.80;79.50
1716;DHT22;855;48.824;9.220;2024-01-15T05:09:18;1.80;79.20
1716;DHT22;855;48.824;9.220;2024-01-15T05:11:45;1.80;79.00
1716;DHT22;855;48.824;9.220;2024-01-15T05:14:12;1.80;79.00
1716;DHT22;855;48.824;9.220;2024-01-15T05:16:46;1.90;78.80
1716;DHT22;855;48.824;9.220;2024-01-15T05:19:13;2.10;78.40
1716;DHT22;855;48.824;9.220;2024-01-15T05:21:40;2.10;78.30
1716;DHT22;855;48.824;9.220;2024-01-15T05:24:08;2.10;78.20
1716;DHT22;855;48.824;9.220;2024-01-15T05:26:35;2.00;78.00
1716;DHT22;855;48.824;9.220;2024-01-15T05:29:02;2.00;78.60
1716;DHT22;855;48.824;9.220;2024-01-15T05:31:29;2.00;78.40
1716;DHT22;855;48.824;9.220;2024-01-15T05:33:58;2.00;78.40
1716;DHT22;855;48.824;9.220;2024-01-15T05:36:26;2.00;78.30
1716;DHT22;855;48.824;9.220;2024-01-15T05:38:53;2.10;78.30
1716;DHT22;855;48.824;9.220;2024-01-15T05:41:20;2.10;78.40
1716;DHT22;855;48.824;9.220;2024-01-15T05:43:48;2.10;78.40
1716;DHT22;855;48.824;9.220;2024-01-15T05:46:17;2.10;78.60
1716;DHT22;855;48.824;9.220;2024-01-15T05:48:44;2.10;78.60
1716;DHT22;855;48.824;9.220;2024-01-15T05:51:12;2.10;78.30
1716;DHT22;855;48.824;9.220;2024-01-15T05:53:39;2.10;78.60
1716;DHT22;855;48.824;9.220;2024-01-15T05:56:08;2.00;78.70
1716;DHT22;855;48.824;9.220;2024-01-15T05:58:36;2.10;78.80
1716;DHT22;855;48.824;9.220;2024-01-15T06:01:03;2.10;78.70
1716;DHT22;855;48.824;9.220;2024-01-15T06:03:30;2.10;78.40
1716;DHT22;855;48.824;9.220;2024-01-15T06:05:57;2.10;78.20
1716;DHT22;855;48.824;9.220;2024-01-15T06:08:26;2.00;78.80
1716;DHT22;855;48.824;9.220;2024-01-15T06:10:56;2.00;78.80
1716;DHT22;855;48.824;9.220;2024-01-15T06:13:23;2.10;79.10
1716;DHT22;855;48.824;9.220;2024-01-15T06:15:50;2.10;78.70
1716;DHT22;855;48.824;9.220;2024-01-15T06:18:17;2.10;78.80
1716;DHT22;855;48.824;9.220;2024-01-15T06:20:44;2.00;78.80
1716;DHT22;855;48.824;9.220;2024-01-15T06:23:11;2.00;79.30
1716;DHT22;855;48.824;9.220;2024-01-15T06:25:39;1.90;79.30
1716;DHT22;855;48.824;9.220;2024-01-15T06:28:06;2.00;79.50
1716;DHT22;855;48.824;9.220;2024-01-15T06:30:33;2.10;79.50
1716;DHT22;855;48.824;9.220;2024-01-15T06:33:00;2.20;79.00
1716;DHT22;855;48.824;9.220;2024-01-15T06:35:28;2.10;78.40
1716;DHT22;855;48.824;9.220;2024-01-15T06:37:55;2.20;78.70
1716;DHT22;855;48.824;9.220;2024-01-15T06:40:22;2.10;78.70
1716;DHT22;855;48.824;9.220;2024-01-15T06:42:51;2.10;79.10
1716;DHT22;855;48.824;9.220;2024-01-15T06:45:17;2.10;79.10
1716;DHT22;855;48.824;9.220;2024-01-15T06:47:44;2.10;79.10
1716;DHT22;855;48.824;9.220;2024-01-15T06:50:11;2.10;79.30
1716;DHT22;855;48.824;9.220;2024-01-15T06:52:37;2.10;79.10
1716;DHT22;855;48.824;9.220;2024-01-15T06:55:05;2.20;79.00
1716;DHT22;855;48.824;9.220;2024-01-15T06:57:32;2.10;79.00
1716;DHT22;855;48.824;9.220;2024-01-15T07:00:00;2.10;78.80
1716;DHT22;855;48.824;9.220;2024-01-15T07:02:33;2.10;78.60
1716;DHT22;855;48.824;9.220;2024-01-15T07:04:59;2.10;79.20
1716;DHT22;855;48.824;9.220;2024-01-15T07:07:26;2.10;79.00
1716;DHT22;855;48.824;9.220;2024-01-15T07:09:55;2.10;78.40
1716;DHT22;855;48.824;9.220;2024-01-15T07:12:22;2.10;78.40
1716;DHT22;855;48.824;9.220;2024-01-15T07:14:49;2.10;78.30
1716;DHT22;855;48.824;9.220;2024-01-15T07:17:17;2.10;78.40
1716;DHT22;855;48.824;9.220;2024-01-15T07:19:44;2.30;78.20
1716;DHT22;855;48.824;9.220;2024-01-15T07:22:10;2.40;80.80
1716;DHT22;855;48.824;9.220;2024-01-15T07:24:37;2.50;80.50
1716;DHT22;855;48.824;9.220;2024-01-15T07:27:04;2.60;77.90
1716;DHT22;855;48.824;9.220;2024-01-15T07:29:31;2.60;77.10
1716;DHT22;855;48.824;9.220;2024-01-15T07:32:01;2.60;77.00
1716;DHT22;855;48.824;9.220;2024-01-15T07:34:30;2.60;76.60
1716;DHT22;855;48.824;9.220;2024-01-15T07:36:57;2.50;76.30
1716;DHT22;855;48.824;9.220;2024-01-15T07:39:24;2.50;76.60
1716;DHT22;855;48.824;9.220;2024-01-15T07:41:51;2.60;76.60
1716;DHT22;855;48.824;9.220;2024-01-15T07:44:18;2.50;75.60
1716;DHT22;855;48.824;9.220;2024-01-15T07:46:45;2.50;75.80
1716;DHT22;855;48.824;9.220;2024-01-15T07:49:12;2.50;76.00
1716;DHT22;855;48.824;9.220;2024-01-15T07:51:41;2.60;76.20
1716;DHT22;855;48.824;9.220;2024-01-15T07:54:09;2.50;75.50
1716;DHT22;855;48.824;9.220;2024-01-15T07:56:55;2.50;75.50
1716;DHT22;855;48.824;9.220;2024-01-15T07:59:23;2.60;75.50
1716;DHT22;855;48.824;9.220;2024-01-15T08:01:50;2.40;75.40
1716;DHT22;855;48.824;9.220;2024-01-15T08:04:17;2.50;75.60
1716;DHT22;855;48.824;9.220;2024-01-15T08:06:46;2.50;75.50
1716;DHT22;855;48.824;9.220;2024-01-15T08:09:13;2.50;75.30
1716;DHT22;855;48.824;9.220;2024-01-15T08:11:41;2.40;75.30
1716;DHT22;855;48.824;9.220;2024-01-15T08:14:08;2.40;75.40
1716;DHT22;855;48.824;9.220;2024-01-15T08:16:35;2.40;75.50
1716;DHT22;855;48.824;9.220;2024-01-15T08:19:02;2.40;75.30
1716;DHT22;855;48.824;9.220;2024-01-15T08:21:31;2.40;75.40
1716;DHT22;855;48.824;9.220;2024-01-15T08:24:00;2.50;75.30
1716;DHT22;855;48.824;9.220;2024-01-15T08:26:28;2.60;75.30
1716;DHT22;855;48.824;9.220;2024-01-15T08:28:55;2.50;75.10
1716;DHT22;855;48.824;9.220;2024-01-15T08:31:23;2.60;75.10
1716;DHT22;855;48.824;9.220;2024-01-15T08:33:50;2.60;74.90
1716;DHT22;855;48.824;9.220;2024-01-15T08:36:19;2.60;75.00
1716;DHT22;855;48.824;9.220;2024-01-15T08:38:46;2.60;75.00
1716;DHT22;855;48.824;9.220;2024-01-15T08:41:14;2.60;75.00
1716;DHT22;855;48.824;9.220;2024-01-15T08:43:41;2.50;75.00
1716;DHT22;855;48.824;9.220;2024-01-15T08:46:09;2.50;75.10
1716;DHT22;855;48.824;9.220;2024-01-15T08:48:37;2.60;74.90
1716;DHT22;855;48.824;9.220;2024-01-15T08:51:04;2.70;74.70
1716;DHT22;855;48.824;9.220;2024-01-15T08:53:31;2.80;74.70
1716;DHT22;855;48.824;9.220;2024-01-15T08:55:58;2.90;74.30
1716;DHT22;855;48.824;9.220;2024-01-15T08:58:27;3.00;73.40
1716;DHT22;855;48.824;9.220;2024-01-15T09:00:54;3.00;73.00
1716;DHT22;855;48.824;9.220;2024-01-15T09:03:21;3.10;72.90
1716;DHT22;855;48.824;9.220;2024-01-15T09:05:48;3.10;71.70
1716;DHT22;855;48.824;9.220;2024-01-15T09:08:15;3.10;71.20
1716;DHT22;855;48.824;9.220;2024-01-15T09:10:43;3.30;70.90
1716;DHT22;855;48.824;9.220;2024-01-15T09:13:09;3.30;70.60
1716;DHT22;855;48.824;9.220;2024-01-15T09:15:38;3.40;70.20
1716;DHT22;855;48.824;9.220;2024-01-15T09:18:06;3.40;69.70
1716;DHT22;855;48.824;9.220;2024-01-15T09:20:33;3.30;69.70
1716;DHT22;855;48.824;9.220;2024-01-15T09:23:00;3.20;70.00
1716;DHT22;855;48.824;9.220;2024-01-15T09:25:28;3.20;69.80
1716;DHT22;855;48.824;9.220;2024-01-15T09:27:55;3.20;70.80
1716;DHT22;855;48.824;9.220;2024-01-15T09:30:23;3.20;70.60
1716;DHT22;855;48.824;9.220;2024-01-15T09:32:51;3.30;71.20
1716;DHT22;855;48.824;9.220;2024-01-15T09:35:18;3.30;71.80
1716;DHT22;855;48.824;9.220;2024-01-15T09:37:45;3.40;71.00
1716;DHT22;855;48.824;9.220;2024-01-15T09:40:13;3.40;70.20
1716;DHT22;855;48.824;9.220;2024-01-15T09:42:41;3.40;70.80
1716;DHT22;855;48.824;9.220;2024-01-15T09:45:09;3.40;71.00
1716;DHT22;855;48.824;9.220;2024-01-15T09:47:37;3.50;71.20
1716;DHT22;855;48.824;9.220;2024-01-15T09:50:06;3.60;70.40
1716;DHT22;855;48.824;9.220;2024-01-15T09:52:34;3.60;69.70
1716;DHT22;855;48.824;9.220;2024-01-15T09:55:03;3.70;69.40
1716;DHT22;855;48.824;9.220;2024-01-15T09:57:31;3.80;69.00
1716;DHT22;855;48.824;9.220;2024-01-15T09:59:59;3.60;68.50
1716;DHT22;855;48.824;9.220;2024-01-15T10:02:36;3.60;69.30
1716;DHT22;855;48.824;9.220;2024-01-15T10:05:05;3.60;69.20
1716;DHT22;855;48.824;9.220;2024-01-15T10:07:35;3.70;68.80
1716;DHT22;855;48.824;9.220;2024-01-15T10:10:02;3.80;68.80
1716;DHT22;855;48.824;9.220;2024-01-15T10:12:30;3.80;68.40
1716;DHT22;855;48.824;9.220;2024-01-15T10:14:57;3.80;68.40
1716;DHT22;855;48.824;9.220;2024-01-15T10:17:24;3.90;68.50
1716;DHT22;855;48.824;9.220;2024-01-15T10:19:54;3.90;68.00
1716;DHT22;855;48.824;9.220;2024-01-15T10:22:23;3.80;68.60
1716;DHT22;855;48.824;9.220;2024-01-15T10:24:52;3.80;68.40
1716;DHT22;855;48.824;9.220;2024-01-15T10:27:19;3.80;68.90
1716;DHT22;855;48.824;9.220;2024-01-15T10:29:47;3.90;68.60
1716;DHT22;855;48.824;9.220;2024-01-15T10:32:15;3.90;68.50
1716;DHT22;855;48.824;9.220;2024-01-15T10:34:43;4.00;68.00
1716;DHT22;855;48.824;9.220;2024-01-15T10:37:10;3.90;67.90
1716;DHT22;855;48.824;9.220;2024-01-15T10:39:38;3.90;68.40
1716;DHT22;855;48.824;9.220;2024-01-15T10:42:06;3.80;68.10
1716;DHT22;855;48.824;9.220;2024-01-15T10:44:35;3.80;68.90
1716;DHT22;855;48.824;9.220;2024-01-15T10:47:03;3.70;69.20
1716;DHT22;855;48.824;9.220;2024-01-15T10:49:30;3.70;69.60
1716;DHT22;855;48.824;9.220;2024-01-15T10:51:58;3.70;69.30
1716;DHT22;855;48.824;9.220;2024-01-15T10:54:27;3.70;69.20
1716;DHT22;855;48.824;9.220;2024-01-15T10:56:56;3.70;69.00
1716;DHT22;855;48.824;9.220;2024-01-15T10:59:24;3.80;69.60
1716;DHT22;855;48.824;9.220;2024-01-15T11:01:52;3.70;70.10
1716;DHT22;855;48.824;9.220;2024-01-15T11:04:20;3.70;70.40
1716;DHT22;855;48.824;9.220;2024-01-15T11:06:51;3.60;71.20
1716;DHT22;855;48.824;9.220;2024-01-15T11:09:21;3.60;71.80
1716;DHT22;855;48.824;9.220;2024-01-15T11:12:09;3.60;73.00
1716;DHT22;855;48.824;9.220;2024-01-15T11:14:40;3.60;73.00
1716;DHT22;855;48.824;9.220;2024-01-15T11:17:09;3.60;73.10
1716;DHT22;855;48.824;9.220;2024-01-15T11:19:49;3.60;73.30
1716;DHT22;855;48.824;9.220;2024-01-15T11:22:49;3.70;73.50
1716;DHT22;855;48.824;9.220;2024-01-15T11:25:19;3.60;74.10
1716;DHT22;855;48.824;9.220;2024-01-15T11:27:50;3.50;74.90
1716;DHT22;855;48.824;9.220;2024-01-15T11:30:18;3.50;76.00
1716;DHT22;855;48.824;9.220;2024-01-15T11:32:47;3.40;78.60
1716;DHT22;855;48.824;9.220;2024-01-15T11:35:14;3.30;80.10
1716;DHT22;855;48.824;9.220;2024-01-15T11:38:03;3.30;81.10
1716;DHT22;855;48.824;9.220;2024-01-15T11:40:39;3.30;81.50
1716;DHT22;855;48.824;9.220;2024-01-15T11:43:10;3.30;81.10
1716;DHT22;855;48.824;9.220;2024-01-15T11:45:39;3.40;80.80
1716;DHT22;855;48.824;9.220;2024-01-15T11:48:11;3.40;81.50
1716;DHT22;855;48.824;9.220;2024-01-15T11:50:44;3.30;81.50
1716;DHT22;855;48.824;9.220;2024-01-15T11:53:17;3.40;81.30
1716;DHT22;855;48.824;9.220;2024-01-15T11:55:45;3.30;81.30
1716;DHT22;855;48.824;9.220;2024-01-15T11:58:15;3.30;81.30
1716;DHT22;855;48.824;9.220;2024-01-15T12:00:47;3.20;81.70
1716;DHT22;855;48.824;9.220;2024-01-15T12:03:20;3.10;82.80
1716;DHT22;855;48.824;9.220;2024-01-15T12:05:49;3.10;82.80
1716;DHT22;855;48.824;9.220;2024-01-15T12:08:21;3.10;83.40
1716;DHT22;855;48.824;9.220;2024-01-15T12:10:48;3.20;84.00
1716;DHT22;855;48.824;9.220;2024-01-15T12:13:20;3.20;84.50
1716;DHT22;855;48.824;9.220;2024-01-15T12:15:48;3.00;84.80
1716;DHT22;855;48.824;9.220;2024-01-15T12:18:19;3.00;85.30
1716;DHT22;855;48.824;9.220;2024-01-15T12:20:49;3.10;85.00
1716;DHT22;855;48.824;9.220;2024-01-15T12:23:16;3.20;84.50
1716;DHT22;855;48.824;9.220;2024-01-15T12:25:44;3.20;83.80
1716;DHT22;855;48.824;9.220;2024-01-15T12:28:11;3.20;84.10
1716;DHT22;855;48.824;9.220;2024-01-15T12:30:40;3.20;84.00
1716;DHT22;855;48.824;9.220;2024-01-15T12:33:07;3.10;84.40
1716;DHT22;855;48.824;9.220;2024-01-15T12:35:35;3.10;84.90
1716;DHT22;855;48.824;9.220;2024-01-15T12:38:03;3.10;84.90
1716;DHT22;855;48.824;9.220;2024-01-15T12:40:31;3.00;85.60
1716;DHT22;855;48.824;9.220;2024-01-15T12:42:59;3.00;86.10
1716;DHT22;855;48.824;9.220;2024-01-15T12:45:31;3.00;86.00
1716;DHT22;855;48.824;9.220;2024-01-15T12:47:59;2.90;86.70
1716;DHT22;855;48.824;9.220;2024-01-15T12:50:27;2.90;87.40
1716;DHT22;855;48.824;9.220;2024-01-15T12:52:54;3.00;87.80
1716;DHT22;855;48.824;9.220;2024-01-15T12:55:21;3.00;88.20
1716;DHT22;855;48.824;9.220;2024-01-15T12:57:49;2.90;88.50
1716;DHT22;855;48.824;9.220;2024-01-15T13:00:19;2.80;89.30
1716;DHT22;855;48.824;9.220;2024-01-15T13:02:46;2.80;89.90
1716;DHT22;855;48.824;9.220;2024-01-15T13:05:17;2.80;90.10
1716;DHT22;855;48.824;9.220;2024-01-15T13:07:44;2.80;90.20
1716;DHT22;855;48.824;9.220;2024-01-15T13:10:12;2.90;90.60
1716;DHT22;855;48.824;9.220;2024-01-15T13:12:41;2.90;90.50
1716;DHT22;855;48.824;9.220;2024-01-15T13:15:08;3.00;90.40
1716;DHT22;855;48.824;9.220;2024-01-15T13:17:37;3.00;90.10
1716;DHT22;855;48.824;9.220;2024-01-15T13:20:05;3.10;89.80
1716;DHT22;855;48.824;9.220;2024-01-15T13:22:35;3.20;89.70
1716;DHT22;855;48.824;9.220;2024-01-15T13:25:05;3.20;89.70
1716;DHT22;855;48.824;9.220;2024-01-15T13:27:34;3.20;89.50
1716;DHT22;855;48.824;9.220;2024-01-15T13:30:03;3.10;89.40
1716;DHT22;855;48.824;9.220;2024-01-15T13:32:33;3.00;89.90
1716;DHT22;855;48.824;9.220;2024-01-15T13:35:00;3.00;90.30
1716;DHT22;855;48.824;9.220;2024-01-15T13:37:28;3.00;90.40
1716;DHT22;855;48.824;9.220;2024-01-15T13:39:57;3.00;90.50
1716;DHT22;855;48.824;9.220;2024-01-15T13:42:24;2.90;90.80
1716;DHT22;855;48.824;9.220;2024-01-15T13:44:53;3.00;90.80
1716;DHT22;855;48.824;9.220;2024-01-15T13:47:23;2.90;90.80
1716;DHT22;855;48.824;9.220;2024-01-15T13:49:50;2.90;91.10
1716;DHT22;855;48.824;9.220;2024-01-15T13:52:18;2.90;91.10
1716;DHT22;855;48.824;9.220;2024-01-15T13:54:45;2.90;91.10
1716;DHT22;855;48.824;9.220;2024-01-15T13:57:16;2.80;91.20
1716;DHT22;855;48.824;9.220;2024-01-15T13:59:44;2.80;91.40
1716;DHT22;855;48.824;9.220;2024-01-15T14:02:11;2.90;91.30
1716;DHT22;855;48.824;9.220;2024-01-15T14:04:39;2.90;91.20
1716;DHT22;855;48.824;9.220;2024-01-15T14:07:07;2.90;90.90
1716;DHT22;855;48.824;9.220;2024-01-15T14:09:33;2.90;90.70
1716;DHT22;855;48.824;9.220;2024-01-15T14:12:00;3.00;90.60
1716;DHT22;855;48.824;9.220;2024-01-15T14:14:29;3.00;90.50
1716;DHT22;855;48.824;9.220;2024-01-15T14:16:56;2.90;90.40
1716;DHT22;855;48.824;9.220;2024-01-15T14:19:24;3.00;90.50
1716;DHT22;855;48.824;9.220;2024-01-15T14:21:51;3.10;90.50
1716;DHT22;855;48.824;9.220;2024-01-15T14:24:18;3.20;90.30
1716;DHT22;855;48.824;9.220;2024-01-15T14:26:45;3.10;89.50
1716;DHT22;855;48.824;9.220;2024-01-15T14:29:12;3.00;89.10
1716;DHT22;855;48.824;9.220;2024-01-15T14:31:49;3.00;89.00
1716;DHT22;855;48.824;9.220;2024-01-15T14:34:19;2.90;89.10
1716;DHT22;855;48.824;9.220;2024-01-15T14:36:49;3.00;89.30
1716;DHT22;855;48.824;9.220;2024-01-15T14:39:18;3.00;89.30
1716;DHT22;855;48.824;9.220;2024-01-15T14:41:45;2.70;89.10
1716;DHT22;855;48.824;9.220;2024-01-15T14:44:13;2.60;90.10
1716;DHT22;855;48.824;9.220;2024-01-15T14:46:41;2.50;90.50
1716;DHT22;855;48.824;9.220;2024-01-15T14:49:08;2.40;91.20
1716;DHT22;855;48.824;9.220;2024-01-15T14:51:35;2.40;91.60
1716;DHT22;855;48.824;9.220;2024-01-15T14:54:04;2.40;91.80
1716;DHT22;855;48.824;9.220;2024-01-15T14:56:32;2.40;92.20
1716;DHT22;855;48.824;9.220;2024-01-15T14:58:59;2.30;92.60
1716;DHT22;855;48.824;9.220;2024-01-15T15:01:28;2.20;93.20
1716;DHT22;855;48.824;9.220;2024-01-15T15:03:56;2.20;93.70
1716;DHT22;855;48.824;9.220;2024-01-15T15:06:24;2.10;93.90
1716;DHT22;855;48.824;9.220;2024-01-15T15:08:53;2.10;94.10
1716;DHT22;855;48.824;9.220;2024-01-15T15:11:21;2.10;94.20
1716;DHT22;855;48.824;9.220;2024-01-15T15:13:49;2.10;94.10
1716;DHT22;855;48.824;9.220;2024-01-15T15:16:19;2.10;94.10
1716;DHT22;855;48.824;9.220;2024-01-15T15:18:47;2.00;93.70
1716;DHT22;855;48.824;9.220;2024-01-15T15:21:16;2.00;93.00
1716;DHT22;855;48.824;9.220;2024-01-15T15:23:50;2.10;93.10
1716;DHT22;855;48.824;9.220;2024-01-15T15:26:20;2.00;92.80
1716;DHT22;855;48.824;9.220;2024-01-15T15:28:49;2.00;92.70
1716;DHT22;855;48.824;9.220;2024-01-15T15:31:19;2.00;92.20
1716;DHT22;855;48.824;9.220;2024-01-15T15:33:48;2.10;91.60
1716;DHT22;855;48.824;9.220;2024-01-15T15:36:16;2.00;91.20
1716;DHT22;855;48.824;9.220;2024-01-15T15:38:44;2.10;91.10
1716;DHT22;855;48.824;9.220;2024-01-15T15:41:11;2.10;90.60
1716;DHT22;855;48.824;9.220;2024-01-15T15:43:38;2.10;89.90
1716;DHT22;855;48.824;9.220;2024-01-15T15:46:06;2.10;89.50
1716;DHT22;855;48.824;9.220;2024-01-15T15:48:35;2.10;88.70
1716;DHT22;855;48.824;9.220;2024-01-15T15:51:02;2.20;88.20
1716;DHT22;855;48.824;9.220;2024-01-15T15:53:33;2.10;87.50
1716;DHT22;855;48.824;9.220;2024-01-15T15:56:01;2.10;87.10
1716;DHT22;855;48.824;9.220;2024-01-15T15:58:29;2.10;87.40
1716;DHT22;855;48.824;9.220;2024-01-15T16:01:01;2.20;87.00
1716;DHT22;855;48.824;9.220;2024-01-15T16:03:28;2.10;86.70
1716;DHT22;855;48.824;9.220;2024-01-15T16:05:57;2.10;86.40
1716;DHT22;855;48.824;9.220;2024-01-15T16:08:24;2.00;86.60
1716;DHT22;855;48.824;9.220;2024-01-15T16:10:52;2.00;87.10
1716;DHT22;855;48.824;9.220;2024-01-15T16:13:21;2.10;87.80
1716;DHT22;855;48.824;9.220;2024-01-15T16:15:48;2.00;87.40
1716;DHT22;855;48.824;9.220;2024-01-15T16:18:15;2.00;87.30
1716;DHT22;855;48.824;9.220;2024-01-15T16:20:42;2.00;87.40
1716;DHT22;855;48.824;9.220;2024-01-15T16:23:11;2.00;87.40
1716;DHT22;855;48.824;9.220;2024-01-15T16:25:46;2.00;87.30
1716;DHT22;855;48.824;9.220;2024-01-15T16:28:15;1.90;86.70
1716;DHT22;855;48.824;9.220;2024-01-15T16:30:43;1.90;86.50
1716;DHT22;855;48.824;9.220;2024-01-15T16:33:10;2.00;86.20
1716;DHT22;855;48.824;9.220;2024-01-15T16:35:38;2.00;85.80
1716;DHT22;855;48.824;9.220;2024-01-15T16:38:06;1.90;85.40
1716;DHT22;855;48.824;9.220;2024-01-15T16:40:33;2.00;85.40